Darstellungsparameter: Aktuell verwendete Einstellungen:
Skalierung der Graphiken ... ?
xyx+y,   Skalierungsfaktor:      Skalierung: Modus: x, Faktor: 1
Darstellungszeitraum ... ?
Vom - - bis: - -   Zeitraum: 22.09.2019 - 22.09.2019
Min/Max/Avg-Anzeige ... ?
Zeige MMA aktuell
Zeige MMA Monat
Zeige MMA alles
Zeige --A aktuell
Zeige --A Monat
Zeige --A alles
Keine MMA-Anzeige
MMA:
Keine MMA-Graphiken
MMA-Basis: 22.09.2019 - 22.09.2019
Quicknavigation für Darstellung... ?
Tage:      1T, 2T, 3T, 5T -1T -2T -3T -5T +1T +2T +3T +5T
Wochen: 1W, 2W, 3W -1W -2W -3W +1W +2W +3W
Monate: 1M, 3M, 6M -1M -3M -6M +1M +3M +6M
Jahre:    1J, 3J, 5J, 10J -1J -3J -5J -10J +1J +3J +5J +10J
Nutze für die Darstellung ... ?
Originaldaten oder Mittelwerte auf ...
Stundenbasis Tagesbasis Wochenbasis
Monatsbasis Jahresbasis      Datenbasis: Original-Daten
Darstellen als:
Statistik (Auto) Statistik J:M      Darstellung:
Zur Graphik,    zurück zur Übersicht aller Sensoren.
 
Tabellarische Datenbersicht: ?
 
Sensor: Nr:Datum:Temp:Feuchte:Taupunkt:
Aussen-T/F 1 22-09-2019 00:00:00 10.2 C 78 % 6.54 C
2 22-09-2019 00:05:00 10.2 C 78 % 6.54 C
3 22-09-2019 00:10:00 10.2 C 78 % 6.54 C
4 22-09-2019 00:15:00 10 C 79 % 6.53 C
5 22-09-2019 00:20:00 9.9 C 80 % 6.62 C
6 22-09-2019 00:25:00 9.8 C 80 % 6.52 C
7 22-09-2019 00:30:00 9.8 C 80 % 6.52 C
8 22-09-2019 00:35:00 9.7 C 81 % 6.6 C
9 22-09-2019 00:40:00 9.7 C 81 % 6.6 C
10 22-09-2019 00:45:00 9.6 C 81 % 6.5 C
11 22-09-2019 00:50:00 9.5 C 81 % 6.41 C
12 22-09-2019 00:55:00 9.3 C 82 % 6.39 C
13 22-09-2019 01:00:00 9.3 C 82 % 6.39 C
14 22-09-2019 01:05:00 9.2 C 83 % 6.47 C
15 22-09-2019 01:10:00 9.2 C 83 % 6.47 C
16 22-09-2019 01:15:00 9.1 C 84 % 6.54 C
17 22-09-2019 01:20:00 9.1 C 84 % 6.54 C
18 22-09-2019 01:25:00 9.1 C 83 % 6.37 C
19 22-09-2019 01:30:00 9.1 C 83 % 6.37 C
20 22-09-2019 01:35:00 9 C 83 % 6.27 C
21 22-09-2019 01:40:00 9.1 C 84 % 6.54 C
22 22-09-2019 01:45:00 9 C 84 % 6.45 C
23 22-09-2019 01:50:00 8.9 C 84 % 6.35 C
24 22-09-2019 01:55:00 8.9 C 84 % 6.35 C
25 22-09-2019 02:00:00 8.8 C 84 % 6.25 C
Sensor: Nr:Datum:Temp:Feuchte:Taupunkt:
Aussen-T/F 26 22-09-2019 02:05:00 8.7 C 84 % 6.15 C
27 22-09-2019 02:10:00 8.6 C 85 % 6.23 C
28 22-09-2019 02:15:00 8.6 C 85 % 6.23 C
29 22-09-2019 02:20:00 8.5 C 85 % 6.13 C
30 22-09-2019 02:25:00 8.4 C 85 % 6.03 C
31 22-09-2019 02:30:00 8.4 C 85 % 6.03 C
32 22-09-2019 02:35:00 8.3 C 85 % 5.93 C
33 22-09-2019 02:40:00 8.2 C 86 % 6 C
34 22-09-2019 02:45:00 8.2 C 86 % 6 C
35 22-09-2019 02:50:00 8.2 C 86 % 6 C
36 22-09-2019 02:55:00 8.2 C 87 % 6.17 C
37 22-09-2019 03:00:00 8.1 C 87 % 6.07 C
38 22-09-2019 03:05:00 8.1 C 87 % 6.07 C
39 22-09-2019 03:10:00 8.1 C 87 % 6.07 C
40 22-09-2019 03:15:00 8 C 87 % 5.97 C
41 22-09-2019 03:20:00 8.1 C 88 % 6.24 C
42 22-09-2019 03:25:00 8.1 C 88 % 6.24 C
43 22-09-2019 03:30:00 8 C 87 % 5.97 C
44 22-09-2019 03:35:00 7.9 C 88 % 6.04 C
45 22-09-2019 03:40:00 7.8 C 88 % 5.94 C
46 22-09-2019 03:45:00 7.8 C 88 % 5.94 C
47 22-09-2019 03:50:00 7.8 C 88 % 5.94 C
48 22-09-2019 03:55:00 7.8 C 88 % 5.94 C
49 22-09-2019 04:00:00 7.7 C 88 % 5.84 C
50 22-09-2019 04:05:00 7.6 C 89 % 5.91 C
Sensor: Nr:Datum:Temp:Feuchte:Taupunkt:
Aussen-T/F 51 22-09-2019 04:10:00 7.6 C 89 % 5.91 C
52 22-09-2019 04:15:00 7.6 C 89 % 5.91 C
53 22-09-2019 04:20:00 7.5 C 89 % 5.81 C
54 22-09-2019 04:25:00 7.4 C 89 % 5.71 C
55 22-09-2019 04:30:00 7.4 C 89 % 5.71 C
56 22-09-2019 04:35:00 7.3 C 89 % 5.61 C
57 22-09-2019 04:40:00 7.2 C 89 % 5.51 C
58 22-09-2019 04:45:00 7.2 C 89 % 5.51 C
59 22-09-2019 04:50:00 7.1 C 89 % 5.41 C
60 22-09-2019 04:55:00 7.1 C 90 % 5.57 C
61 22-09-2019 05:00:00 7.1 C 90 % 5.57 C
62 22-09-2019 05:05:00 7.1 C 90 % 5.57 C
63 22-09-2019 05:10:00 7.1 C 91 % 5.73 C
64 22-09-2019 05:15:00 7.2 C 91 % 5.83 C
65 22-09-2019 05:20:00 7.2 C 90 % 5.67 C
66 22-09-2019 05:25:00 7.1 C 91 % 5.73 C
67 22-09-2019 05:30:00 7.1 C 91 % 5.73 C
68 22-09-2019 05:35:00 7.1 C 91 % 5.73 C
69 22-09-2019 05:40:00 7 C 91 % 5.63 C
70 22-09-2019 05:45:00 7 C 91 % 5.63 C
71 22-09-2019 05:50:00 6.9 C 91 % 5.54 C
72 22-09-2019 05:55:00 6.9 C 91 % 5.54 C
73 22-09-2019 06:00:00 6.9 C 91 % 5.54 C
74 22-09-2019 06:05:00 6.9 C 92 % 5.69 C
75 22-09-2019 06:10:00 7 C 92 % 5.79 C
Sensor: Nr:Datum:Temp:Feuchte:Taupunkt:
Aussen-T/F 76 22-09-2019 06:15:00 7.1 C 92 % 5.89 C
77 22-09-2019 06:20:00 7 C 92 % 5.79 C
78 22-09-2019 06:25:00 7 C 92 % 5.79 C
79 22-09-2019 06:30:00 7.1 C 92 % 5.89 C
80 22-09-2019 06:35:00 7.1 C 92 % 5.89 C
81 22-09-2019 06:40:00 7 C 92 % 5.79 C
82 22-09-2019 06:45:00 6.9 C 92 % 5.69 C
83 22-09-2019 06:50:00 6.9 C 92 % 5.69 C
84 22-09-2019 06:55:00 7 C 92 % 5.79 C
85 22-09-2019 07:00:00 6.9 C 92 % 5.69 C
86 22-09-2019 07:05:00 6.9 C 92 % 5.69 C
87 22-09-2019 07:10:00 6.8 C 92 % 5.59 C
88 22-09-2019 07:15:00 6.8 C 92 % 5.59 C
89 22-09-2019 07:20:00 6.8 C 92 % 5.59 C
90 22-09-2019 07:25:00 6.8 C 92 % 5.59 C
91 22-09-2019 07:30:00 6.8 C 93 % 5.75 C
92 22-09-2019 07:35:00 6.9 C 93 % 5.85 C
93 22-09-2019 07:40:00 6.9 C 93 % 5.85 C
94 22-09-2019 07:45:00 7.1 C 93 % 6.05 C
95 22-09-2019 07:50:00 7.2 C 93 % 6.15 C
96 22-09-2019 07:55:00 7.3 C 93 % 6.25 C
97 22-09-2019 08:00:00 7.3 C 93 % 6.25 C
98 22-09-2019 08:05:00 7.3 C 93 % 6.25 C
99 22-09-2019 08:10:00 7.3 C 93 % 6.25 C
100 22-09-2019 08:15:00 7.4 C 93 % 6.34 C
Sensor: Nr:Datum:Temp:Feuchte:Taupunkt:
Aussen-T/F 101 22-09-2019 08:20:00 7.4 C 93 % 6.34 C
102 22-09-2019 08:25:00 7.5 C 93 % 6.44 C
103 22-09-2019 08:30:00 7.6 C 93 % 6.54 C
104 22-09-2019 08:35:00 7.7 C 93 % 6.64 C
105 22-09-2019 08:40:00 7.7 C 93 % 6.64 C
106 22-09-2019 08:45:00 7.8 C 93 % 6.74 C
107 22-09-2019 08:50:00 7.8 C 93 % 6.74 C
108 22-09-2019 08:55:00 7.9 C 93 % 6.84 C
109 22-09-2019 09:00:00 7.9 C 93 % 6.84 C
110 22-09-2019 09:05:00 8.1 C 93 % 7.04 C
111 22-09-2019 09:10:00 8.2 C 93 % 7.14 C
112 22-09-2019 09:15:00 8.3 C 93 % 7.24 C
113 22-09-2019 09:20:00 8.4 C 94 % 7.49 C
114 22-09-2019 09:25:00 8.6 C 93 % 7.53 C
115 22-09-2019 09:30:00 8.7 C 93 % 7.63 C
116 22-09-2019 09:35:00 8.8 C 93 % 7.73 C
117 22-09-2019 09:40:00 8.9 C 93 % 7.83 C
118 22-09-2019 09:45:00 9.1 C 94 % 8.19 C
119 22-09-2019 09:50:00 9.2 C 93 % 8.13 C
120 22-09-2019 09:55:00 9.4 C 93 % 8.33 C
121 22-09-2019 10:00:00 9.6 C 93 % 8.53 C
122 22-09-2019 10:05:00 9.8 C 93 % 8.72 C
123 22-09-2019 10:10:00 10 C 93 % 8.92 C
124 22-09-2019 10:15:00 10.3 C 93 % 9.22 C
125 22-09-2019 10:20:00 10.5 C 93 % 9.42 C
Sensor: Nr:Datum:Temp:Feuchte:Taupunkt:
Aussen-T/F 126 22-09-2019 10:25:00 10.8 C 93 % 9.71 C
127 22-09-2019 10:30:00 11.2 C 93 % 10.11 C
128 22-09-2019 10:35:00 11.4 C 92 % 10.15 C
129 22-09-2019 10:40:00 11.7 C 90 % 10.12 C
130 22-09-2019 10:45:00 12.1 C 89 % 10.34 C
131 22-09-2019 10:50:00 12.4 C 88 % 10.47 C
132 22-09-2019 10:55:00 12.8 C 88 % 10.86 C
133 22-09-2019 11:00:00 13.1 C 86 % 10.81 C
134 22-09-2019 11:05:00 13.4 C 86 % 11.11 C
135 22-09-2019 11:10:00 13.8 C 84 % 11.15 C
136 22-09-2019 11:15:00 14.1 C 82 % 11.08 C
137 22-09-2019 11:20:00 14.4 C 80 % 11 C
138 22-09-2019 11:25:00 14.8 C 81 % 11.57 C
139 22-09-2019 11:30:00 15.1 C 79 % 11.49 C
140 22-09-2019 11:35:00 15.3 C 77 % 11.3 C
141 22-09-2019 11:40:00 15.6 C 76 % 11.39 C
142 22-09-2019 11:45:00 15.9 C 77 % 11.88 C
143 22-09-2019 11:50:00 16.2 C 76 % 11.97 C
144 22-09-2019 11:55:00 16.3 C 74 % 11.66 C
145 22-09-2019 12:00:00 16.6 C 75 % 12.15 C
146 22-09-2019 12:05:00 16.8 C 75 % 12.35 C
147 22-09-2019 12:10:00 17 C 74 % 12.34 C
148 22-09-2019 12:15:00 17.2 C 75 % 12.73 C
149 22-09-2019 12:20:00 17.4 C 74 % 12.72 C
150 22-09-2019 12:25:00 17.6 C 74 % 12.91 C
Sensor: Nr:Datum:Temp:Feuchte:Taupunkt:
Aussen-T/F 151 22-09-2019 12:30:00 17.8 C 73 % 12.9 C
152 22-09-2019 12:35:00 17.9 C 73 % 12.99 C
153 22-09-2019 12:40:00 18.2 C 73 % 13.28 C
154 22-09-2019 12:45:00 18.3 C 70 % 12.74 C
155 22-09-2019 12:50:00 18.6 C 72 % 13.46 C
156 22-09-2019 12:55:00 18.8 C 67 % 12.55 C
157 22-09-2019 13:00:00 19.2 C 70 % 13.6 C
158 22-09-2019 13:05:00 19.5 C 68 % 13.44 C
159 22-09-2019 13:10:00 19.8 C 69 % 13.95 C
160 22-09-2019 13:15:00 20.1 C 69 % 14.24 C
161 22-09-2019 13:20:00 20.3 C 66 % 13.74 C
162 22-09-2019 13:25:00 20.6 C 68 % 14.49 C
163 22-09-2019 13:30:00 20.8 C 65 % 13.98 C
164 22-09-2019 13:35:00 21 C 60 % 12.94 C
165 22-09-2019 13:40:00 21.3 C 65 % 14.46 C
166 22-09-2019 13:45:00 21.6 C 60 % 13.51 C
167 22-09-2019 13:50:00 21.9 C 59 % 13.53 C
168 22-09-2019 13:55:00 22.4 C 56 % 13.2 C
169 22-09-2019 14:00:00 22.8 C 56 % 13.57 C
170 22-09-2019 14:05:00 23.2 C 55 % 13.66 C
171 22-09-2019 14:10:00 23.4 C 53 % 13.28 C
172 22-09-2019 14:15:00 23.8 C 53 % 13.65 C
173 22-09-2019 14:20:00 24.1 C 57 % 15.05 C
174 22-09-2019 14:25:00 24.2 C 51 % 13.43 C
175 22-09-2019 14:30:00 24.3 C 54 % 14.4 C
Sensor: Nr:Datum:Temp:Feuchte:Taupunkt:
Aussen-T/F 176 22-09-2019 14:35:00 24.4 C 52 % 13.91 C
177 22-09-2019 14:40:00 24.4 C 51 % 13.61 C
178 22-09-2019 14:45:00 24.6 C 53 % 14.39 C
179 22-09-2019 14:50:00 24.7 C 52 % 14.19 C
180 22-09-2019 14:55:00 24.7 C 53 % 14.48 C
181 22-09-2019 15:00:00 24.8 C 49 % 13.36 C
182 22-09-2019 15:05:00 24.9 C 49 % 13.46 C
183 22-09-2019 15:10:00 25 C 53 % 14.76 C
184 22-09-2019 15:15:00 24.9 C 48 % 13.14 C
185 22-09-2019 15:20:00 24.9 C 50 % 13.77 C
186 22-09-2019 15:25:00 24.9 C 49 % 13.46 C
187 22-09-2019 15:30:00 24.8 C 49 % 13.36 C
188 22-09-2019 15:35:00 24.8 C 50 % 13.67 C
189 22-09-2019 15:40:00 24.8 C 50 % 13.67 C
190 22-09-2019 15:45:00 24.8 C 50 % 13.67 C
191 22-09-2019 15:50:00 24.8 C 49 % 13.36 C
192 22-09-2019 15:55:00 24.8 C 51 % 13.98 C
193 22-09-2019 16:00:00 24.8 C 52 % 14.28 C
194 22-09-2019 16:05:00 24.8 C 50 % 13.67 C
195 22-09-2019 16:10:00 24.8 C 51 % 13.98 C
196 22-09-2019 16:15:00 24.8 C 50 % 13.67 C
197 22-09-2019 16:20:00 24.8 C 55 % 15.15 C
198 22-09-2019 16:25:00 24.8 C 53 % 14.57 C
199 22-09-2019 16:30:00 24.8 C 56 % 15.43 C
200 22-09-2019 16:35:00 24.7 C 55 % 15.05 C
Sensor: Nr:Datum:Temp:Feuchte:Taupunkt:
Aussen-T/F 201 22-09-2019 16:40:00 24.7 C 55 % 15.05 C
202 22-09-2019 16:45:00 24.7 C 55 % 15.05 C
203 22-09-2019 16:50:00 24.6 C 58 % 15.79 C
204 22-09-2019 16:55:00 24.5 C 58 % 15.7 C
205 22-09-2019 17:00:00 24.3 C 54 % 14.4 C
206 22-09-2019 17:05:00 24.3 C 58 % 15.51 C
207 22-09-2019 17:10:00 24.2 C 59 % 15.68 C
208 22-09-2019 17:15:00 24 C 59 % 15.5 C
209 22-09-2019 17:20:00 23.8 C 60 % 15.57 C
210 22-09-2019 17:25:00 23.6 C 59 % 15.12 C
211 22-09-2019 17:30:00 23.4 C 60 % 15.19 C
212 22-09-2019 17:35:00 23.2 C 60 % 15.01 C
213 22-09-2019 17:40:00 23.1 C 61 % 15.17 C
214 22-09-2019 17:45:00 22.8 C 61 % 14.89 C
215 22-09-2019 17:50:00 22.7 C 62 % 15.05 C
216 22-09-2019 17:55:00 22.4 C 62 % 14.76 C
217 22-09-2019 18:00:00 22.3 C 63 % 14.92 C
218 22-09-2019 18:05:00 22.2 C 64 % 15.07 C
219 22-09-2019 18:10:00 22.1 C 65 % 15.21 C
220 22-09-2019 18:15:00 22 C 64 % 14.88 C
221 22-09-2019 18:20:00 21.9 C 64 % 14.78 C
222 22-09-2019 18:25:00 21.8 C 64 % 14.69 C
223 22-09-2019 18:30:00 21.7 C 64 % 14.6 C
224 22-09-2019 18:35:00 21.6 C 64 % 14.5 C
225 22-09-2019 18:40:00 21.4 C 65 % 14.55 C
Sensor: Nr:Datum:Temp:Feuchte:Taupunkt:
Aussen-T/F 226 22-09-2019 18:45:00 21.4 C 63 % 14.07 C
227 22-09-2019 18:50:00 21.3 C 64 % 14.22 C
228 22-09-2019 18:55:00 21.2 C 64 % 14.12 C
229 22-09-2019 19:00:00 21.1 C 64 % 14.03 C
230 22-09-2019 19:05:00 20.9 C 64 % 13.84 C
231 22-09-2019 19:10:00 20.8 C 64 % 13.74 C
232 22-09-2019 19:15:00 20.6 C 64 % 13.55 C
233 22-09-2019 19:20:00 20.4 C 64 % 13.37 C
234 22-09-2019 19:25:00 20.3 C 65 % 13.51 C
235 22-09-2019 19:30:00 20.2 C 65 % 13.41 C
236 22-09-2019 19:35:00 20.2 C 66 % 13.65 C
237 22-09-2019 19:40:00 20.1 C 66 % 13.55 C
238 22-09-2019 19:45:00 19.9 C 66 % 13.36 C
239 22-09-2019 19:50:00 19.8 C 66 % 13.27 C
240 22-09-2019 19:55:00 19.7 C 66 % 13.17 C
241 22-09-2019 20:00:00 19.6 C 67 % 13.31 C
242 22-09-2019 20:05:00 19.4 C 67 % 13.12 C
243 22-09-2019 20:10:00 19.3 C 67 % 13.02 C
244 22-09-2019 20:15:00 19.2 C 68 % 13.15 C
245 22-09-2019 20:20:00 19.1 C 68 % 13.06 C
246 22-09-2019 20:25:00 18.9 C 68 % 12.87 C
247 22-09-2019 20:30:00 18.9 C 67 % 12.64 C
248 22-09-2019 20:35:00 18.8 C 68 % 12.77 C
249 22-09-2019 20:40:00 18.8 C 65 % 12.09 C
250 22-09-2019 20:45:00 18.9 C 64 % 11.95 C
Sensor: Nr:Datum:Temp:Feuchte:Taupunkt:
Aussen-T/F 251 22-09-2019 20:50:00 19 C 64 % 12.04 C
252 22-09-2019 20:55:00 19 C 66 % 12.51 C
253 22-09-2019 21:00:00 18.9 C 66 % 12.41 C
254 22-09-2019 21:05:00 18.6 C 67 % 12.36 C
255 22-09-2019 21:10:00 18.3 C 68 % 12.3 C
256 22-09-2019 21:15:00 18.1 C 69 % 12.33 C
257 22-09-2019 21:20:00 17.9 C 69 % 12.14 C
258 22-09-2019 21:25:00 17.9 C 69 % 12.14 C
259 22-09-2019 21:30:00 17.9 C 70 % 12.35 C
260 22-09-2019 21:35:00 17.8 C 69 % 12.04 C
261 22-09-2019 21:40:00 17.9 C 70 % 12.35 C
262 22-09-2019 21:45:00 18.1 C 69 % 12.33 C
263 22-09-2019 21:50:00 18.3 C 69 % 12.52 C
264 22-09-2019 21:55:00 18.4 C 69 % 12.61 C
265 22-09-2019 22:00:00 18.4 C 69 % 12.61 C
266 22-09-2019 22:05:00 18.5 C 70 % 12.93 C
267 22-09-2019 22:10:00 18.4 C 68 % 12.39 C
268 22-09-2019 22:15:00 18.6 C 70 % 13.02 C
269 22-09-2019 22:20:00 18.5 C 69 % 12.71 C
270 22-09-2019 22:25:00 18.4 C 69 % 12.61 C
271 22-09-2019 22:30:00 18.3 C 69 % 12.52 C
272 22-09-2019 22:35:00 18.2 C 70 % 12.64 C
273 22-09-2019 22:40:00 18.1 C 70 % 12.55 C
274 22-09-2019 22:45:00 18.1 C 71 % 12.76 C
275 22-09-2019 22:50:00 18.1 C 71 % 12.76 C
Sensor: Nr:Datum:Temp:Feuchte:Taupunkt:
Aussen-T/F 276 22-09-2019 22:55:00 18 C 72 % 12.88 C
277 22-09-2019 23:00:00 18 C 73 % 13.09 C
278 22-09-2019 23:05:00 17.9 C 74 % 13.2 C
279 22-09-2019 23:10:00 17.9 C 75 % 13.41 C
280 22-09-2019 23:15:00 17.9 C 75 % 13.41 C
281 22-09-2019 23:20:00 17.8 C 74 % 13.11 C
282 22-09-2019 23:25:00 17.9 C 75 % 13.41 C
283 22-09-2019 23:30:00 17.8 C 75 % 13.31 C
284 22-09-2019 23:35:00 17.8 C 75 % 13.31 C
285 22-09-2019 23:40:00 17.8 C 75 % 13.31 C
286 22-09-2019 23:45:00 17.7 C 76 % 13.42 C
287 22-09-2019 23:50:00 17.6 C 77 % 13.52 C
288 22-09-2019 23:55:00 17.6 C 77 % 13.52 C

Legende:
   Min
   Max


Maximal/Minimal-Werte vom 22.09.2019 - 22.09.2019

Sensor Min Max Avg
Temp
(Aussen-T/F)
6.8 °C
22-09-2019  07:10:00
25 °C
22-09-2019  15:10:00
14.86 °C
Feuchte
(Aussen-T/F)
48 %
22-09-2019  15:15:00
94 %
22-09-2019  09:20:00
75.88 %
Taupunkt
(Aussen-T/F)
5.41 C
22-09-2019  04:50:00
15.79 C
22-09-2019  16:50:00
10.23 C

Die Daten stammen von einer Davis Vantage Pro 2 Wetter-Station und werden unter Linux mit der Software wview2wettercgi und aufbereitet. Alle Angaben erfolgen ohne Gewähr für ihre Vollständigkeit oder Richtigkeit.
Kontakt: Rainer Krienke krienke@uni-koblenz.de . Meine Webseiten an der Uni Koblenz oder privat.
Version: $Revision: 0.78 $